createdAt,value
2023-05-14T00:00:51.158Z,9.76
2023-05-14T00:01:51.346Z,9.79
2023-05-14T00:02:51.559Z,9.86
2023-05-14T00:03:51.806Z,9.79
2023-05-14T00:04:51.931Z,9.78
2023-05-14T00:05:52.088Z,9.82
2023-05-14T00:06:52.231Z,9.85
2023-05-14T00:07:52.425Z,9.75
2023-05-14T00:08:52.560Z,9.81
2023-05-14T00:09:53.418Z,9.83
2023-05-14T00:10:52.917Z,9.76
2023-05-14T00:11:53.038Z,9.85
2023-05-14T00:12:53.236Z,9.83
2023-05-14T00:13:53.394Z,9.82
2023-05-14T00:14:53.561Z,9.89
2023-05-14T00:15:53.753Z,9.85
2023-05-14T00:16:53.969Z,9.93
2023-05-14T00:17:54.149Z,9.93
2023-05-14T00:18:54.348Z,9.96
2023-05-14T00:19:55.417Z,9.79
2023-05-14T00:20:54.733Z,9.71
2023-05-14T00:21:54.777Z,9.61
2023-05-14T00:22:56.435Z,9.60
2023-05-14T00:23:55.178Z,9.58
2023-05-14T00:24:56.916Z,9.66
2023-05-14T00:25:56.466Z,9.68
2023-05-14T00:26:55.750Z,9.68
2023-05-14T00:27:56.464Z,9.67
2023-05-14T00:28:56.119Z,9.63
2023-05-14T00:29:56.312Z,9.66
2023-05-14T00:30:56.544Z,9.64
2023-05-14T00:31:56.709Z,9.73
2023-05-14T00:32:57.873Z,9.76
2023-05-14T00:33:57.916Z,9.75
2023-05-14T00:34:57.180Z,9.76
2023-05-14T00:35:57.963Z,9.71
2023-05-14T00:36:58.464Z,9.73
2023-05-14T00:37:58.489Z,9.78
2023-05-14T00:38:58.444Z,9.81
2023-05-14T00:39:58.089Z,9.79
2023-05-14T00:40:58.209Z,9.78
2023-05-14T00:41:58.373Z,9.79
2023-05-14T00:42:58.558Z,9.75
2023-05-14T00:43:59.436Z,9.71
2023-05-14T00:44:58.850Z,9.70
2023-05-14T00:45:59.022Z,9.67
2023-05-14T00:46:59.270Z,9.75
2023-05-14T00:47:59.423Z,9.76
2023-05-14T00:48:59.587Z,9.71
2023-05-14T00:50:00.418Z,9.66
2023-05-14T00:50:59.922Z,9.68
2023-05-14T00:52:00.113Z,9.67
2023-05-14T00:53:01.923Z,9.66
2023-05-14T00:54:00.425Z,9.63
2023-05-14T00:55:01.576Z,9.64
2023-05-14T00:56:00.697Z,9.70
2023-05-14T00:57:00.887Z,9.58
2023-05-14T00:58:02.030Z,9.60
2023-05-14T00:59:01.291Z,9.67
2023-05-14T01:00:01.551Z,9.67
2023-05-14T01:01:03.598Z,9.71
2023-05-14T01:02:01.725Z,9.70
2023-05-14T01:03:01.970Z,9.70
2023-05-14T01:04:02.114Z,9.67
2023-05-14T01:05:02.265Z,9.81
2023-05-14T01:06:02.405Z,9.73
2023-05-14T01:07:03.443Z,9.73
2023-05-14T01:08:02.684Z,9.75
2023-05-14T01:09:02.825Z,9.64
2023-05-14T01:10:04.442Z,9.64
2023-05-14T01:11:03.972Z,9.60
2023-05-14T01:12:03.512Z,9.68
2023-05-14T01:13:03.668Z,9.60
2023-05-14T01:14:03.805Z,9.66
2023-05-14T01:15:03.979Z,9.63
2023-05-14T01:16:05.020Z,9.58
2023-05-14T01:17:04.312Z,9.61
2023-05-14T01:18:04.560Z,9.53
2023-05-14T01:19:04.623Z,9.56
2023-05-14T01:20:04.830Z,9.63
2023-05-14T01:21:05.928Z,9.52
2023-05-14T01:22:05.194Z,9.49
2023-05-14T01:23:05.319Z,9.43
2023-05-14T01:24:06.481Z,9.52
2023-05-14T01:25:05.667Z,9.50
2023-05-14T01:26:06.799Z,9.49
2023-05-14T01:27:06.944Z,9.48
2023-05-14T01:28:06.200Z,9.43
2023-05-14T01:29:06.389Z,9.35
2023-05-14T01:30:08.296Z,9.38
2023-05-14T01:31:07.437Z,9.24
2023-05-14T01:32:06.987Z,9.30
2023-05-14T01:33:07.145Z,9.23
2023-05-14T01:34:07.254Z,9.31
2023-05-14T01:35:07.981Z,9.30
2023-05-14T01:36:09.427Z,9.25
2023-05-14T01:37:07.656Z,9.39
2023-05-14T01:38:07.818Z,9.35
2023-05-14T01:39:07.981Z,9.32
2023-05-14T01:40:08.979Z,9.34
2023-05-14T01:41:08.402Z,9.31
2023-05-14T01:42:08.571Z,9.31
2023-05-14T01:43:08.796Z,9.34
2023-05-14T01:44:08.869Z,9.28
2023-05-14T01:45:09.058Z,9.35
2023-05-14T01:46:09.233Z,9.39
2023-05-14T01:47:09.387Z,9.40
2023-05-14T01:48:11.449Z,9.40
2023-05-14T01:49:10.962Z,9.31
2023-05-14T01:50:09.959Z,9.27
2023-05-14T01:51:10.113Z,9.34
2023-05-14T01:52:10.284Z,9.32
2023-05-14T01:53:10.444Z,9.30
2023-05-14T01:54:10.620Z,9.31
2023-05-14T01:55:11.474Z,9.21
2023-05-14T01:56:10.975Z,9.21
2023-05-14T01:57:11.158Z,9.21
2023-05-14T01:58:11.327Z,9.30
2023-05-14T01:59:11.471Z,9.28
2023-05-14T02:00:11.653Z,9.20
2023-05-14T02:01:13.980Z,9.15
2023-05-14T02:02:11.963Z,9.10
2023-05-14T02:03:13.141Z,9.25
2023-05-14T02:04:13.356Z,9.15
2023-05-14T02:05:12.527Z,9.16
2023-05-14T02:06:12.670Z,9.13
2023-05-14T02:07:12.838Z,9.15
2023-05-14T02:08:13.982Z,9.13
2023-05-14T02:09:13.225Z,9.18
2023-05-14T02:10:13.418Z,9.09
2023-05-14T02:11:14.310Z,9.01
2023-05-14T02:12:14.447Z,9.02
2023-05-14T02:13:13.829Z,8.87
2023-05-14T02:14:14.943Z,8.73
2023-05-14T02:15:14.188Z,8.65
2023-05-14T02:16:15.490Z,8.76
2023-05-14T02:17:14.502Z,8.71
2023-05-14T02:18:14.704Z,8.78
2023-05-14T02:19:15.642Z,8.81
2023-05-14T02:20:15.997Z,8.87
2023-05-14T02:21:15.988Z,8.83
2023-05-14T02:22:15.400Z,8.88
2023-05-14T02:23:16.440Z,8.81
2023-05-14T02:24:15.708Z,8.97
2023-05-14T02:25:16.489Z,8.86
2023-05-14T02:26:16.992Z,8.91
2023-05-14T02:27:16.290Z,8.91
2023-05-14T02:28:16.463Z,8.93
2023-05-14T02:29:16.889Z,8.87
2023-05-14T02:30:17.943Z,8.90
2023-05-14T02:31:16.990Z,8.91
2023-05-14T02:32:17.277Z,8.90
2023-05-14T02:33:18.099Z,8.86
2023-05-14T02:34:17.508Z,8.88
2023-05-14T02:35:17.657Z,8.88
2023-05-14T02:36:19.317Z,8.90
2023-05-14T02:37:18.955Z,8.94
2023-05-14T02:38:18.099Z,8.86
2023-05-14T02:39:18.993Z,8.87
2023-05-14T02:40:18.480Z,8.84
2023-05-14T02:41:20.452Z,8.88
2023-05-14T02:42:19.447Z,8.81
2023-05-14T02:43:19.034Z,8.87
2023-05-14T02:44:19.282Z,8.86
2023-05-14T02:45:19.988Z,8.78
2023-05-14T02:46:19.641Z,8.79
2023-05-14T02:47:20.041Z,8.88
2023-05-14T02:48:19.973Z,8.90
2023-05-14T02:49:20.101Z,8.78
2023-05-14T02:50:20.332Z,8.81
2023-05-14T02:51:20.502Z,8.79
2023-05-14T02:52:20.632Z,8.86
2023-05-14T02:53:21.448Z,8.84
2023-05-14T02:54:21.044Z,8.84
2023-05-14T02:55:21.513Z,8.83
2023-05-14T02:56:21.996Z,8.81
2023-05-14T02:57:21.474Z,8.71
2023-05-14T02:58:25.891Z,8.75
2023-05-14T02:59:22.821Z,8.73
2023-05-14T03:00:22.200Z,8.66
2023-05-14T03:01:23.081Z,8.60
2023-05-14T03:02:22.331Z,8.63
2023-05-14T03:03:23.090Z,8.69
2023-05-14T03:04:23.455Z,8.60
2023-05-14T03:05:23.454Z,8.54
2023-05-14T03:06:22.846Z,8.58
2023-05-14T03:07:23.003Z,8.63
2023-05-14T03:08:23.195Z,8.55
2023-05-14T03:09:23.395Z,8.53
2023-05-14T03:10:24.307Z,8.60
2023-05-14T03:11:23.765Z,8.57
2023-05-14T03:12:23.956Z,8.62
2023-05-14T03:13:24.508Z,8.55
2023-05-14T03:14:24.323Z,8.45
2023-05-14T03:15:24.516Z,8.55
2023-05-14T03:16:24.754Z,8.44
2023-05-14T03:17:24.980Z,8.51
2023-05-14T03:18:25.529Z,8.53
2023-05-14T03:19:25.281Z,8.65
2023-05-14T03:20:25.616Z,8.55
2023-05-14T03:21:26.014Z,8.55
2023-05-14T03:22:25.790Z,8.53
2023-05-14T03:23:26.458Z,8.47
2023-05-14T03:24:27.141Z,8.47
2023-05-14T03:25:26.988Z,8.45
2023-05-14T03:26:26.541Z,8.51
2023-05-14T03:27:26.707Z,8.54
2023-05-14T03:28:26.892Z,8.48
2023-05-14T03:29:27.023Z,8.48
2023-05-14T03:30:27.273Z,8.50
2023-05-14T03:31:27.505Z,8.55
2023-05-14T03:32:27.602Z,8.48
2023-05-14T03:33:28.498Z,8.42
2023-05-14T03:34:28.049Z,8.48
2023-05-14T03:35:28.226Z,8.45
2023-05-14T03:36:29.001Z,8.50
2023-05-14T03:37:29.468Z,8.45
2023-05-14T03:38:29.962Z,8.54
2023-05-14T03:39:29.594Z,8.47
2023-05-14T03:40:30.011Z,8.42
2023-05-14T03:41:29.272Z,8.37
2023-05-14T03:42:29.551Z,8.42
2023-05-14T03:43:29.574Z,8.40
2023-05-14T03:44:31.459Z,8.36
2023-05-14T03:45:29.962Z,8.32
2023-05-14T03:46:30.128Z,8.40
2023-05-14T03:47:30.326Z,8.39
2023-05-14T03:48:31.493Z,8.33
2023-05-14T03:49:31.028Z,8.32
2023-05-14T03:50:30.880Z,8.33
2023-05-14T03:51:31.931Z,8.37
2023-05-14T03:52:31.834Z,8.42
2023-05-14T03:53:31.266Z,8.42
2023-05-14T03:54:31.473Z,8.40
2023-05-14T03:55:31.655Z,8.45
2023-05-14T03:56:31.843Z,8.50
2023-05-14T03:57:33.469Z,8.47
2023-05-14T03:58:33.025Z,8.40
2023-05-14T03:59:32.980Z,8.39
2023-05-14T04:00:32.673Z,8.40
2023-05-14T04:01:33.962Z,8.47
2023-05-14T04:02:33.053Z,8.42
2023-05-14T04:03:34.148Z,8.40
2023-05-14T04:04:34.066Z,8.40
2023-05-14T04:05:33.493Z,8.42
2023-05-14T04:06:34.527Z,8.42
2023-05-14T04:07:33.806Z,8.47
2023-05-14T04:08:34.008Z,8.48
2023-05-14T04:09:34.190Z,8.47
2023-05-14T04:10:34.377Z,8.55
2023-05-14T04:11:34.556Z,8.40
2023-05-14T04:12:34.750Z,8.36
2023-05-14T04:13:34.922Z,8.44
2023-05-14T04:14:36.007Z,8.29
2023-05-14T04:15:36.014Z,8.33
2023-05-14T04:16:36.446Z,8.40
2023-05-14T04:17:35.709Z,8.44
2023-05-14T04:18:35.849Z,8.42
2023-05-14T04:19:35.982Z,8.39
2023-05-14T04:20:37.057Z,8.44
2023-05-14T04:21:36.391Z,8.44
2023-05-14T04:22:36.596Z,8.44
2023-05-14T04:23:38.483Z,8.39
2023-05-14T04:24:37.009Z,8.39
2023-05-14T04:25:37.980Z,8.39
2023-05-14T04:26:37.422Z,8.44
2023-05-14T04:27:38.517Z,8.45
2023-05-14T04:28:38.997Z,8.42
2023-05-14T04:29:38.029Z,8.54
2023-05-14T04:30:38.216Z,8.47
2023-05-14T04:31:38.975Z,8.51
2023-05-14T04:32:38.672Z,8.55
2023-05-14T04:33:38.854Z,8.58
2023-05-14T04:34:39.527Z,8.63
2023-05-14T04:35:39.176Z,8.54
2023-05-14T04:36:40.021Z,8.68
2023-05-14T04:37:39.560Z,8.65
2023-05-14T04:38:39.746Z,8.75
2023-05-14T04:39:39.993Z,8.71
2023-05-14T04:40:42.032Z,8.84
2023-05-14T04:41:40.309Z,8.88
2023-05-14T04:42:40.548Z,8.90
2023-05-14T04:43:40.765Z,8.99
2023-05-14T04:44:40.998Z,9.21
2023-05-14T04:45:41.234Z,9.39
2023-05-14T04:46:42.344Z,9.64
2023-05-14T04:47:41.539Z,9.94
2023-05-14T04:48:41.628Z,10.21
2023-05-14T04:49:42.030Z,10.60
2023-05-14T04:50:42.088Z,10.74
2023-05-14T04:51:43.018Z,10.91
2023-05-14T04:52:43.015Z,11.17
2023-05-14T04:53:44.341Z,11.47
2023-05-14T04:54:42.916Z,11.57
2023-05-14T04:55:44.472Z,11.49
2023-05-14T04:56:43.981Z,11.28
2023-05-14T04:57:43.246Z,11.27
2023-05-14T04:58:43.414Z,11.10
2023-05-14T04:59:44.979Z,11.09
2023-05-14T05:00:43.719Z,11.06
2023-05-14T05:01:44.593Z,11.06
2023-05-14T05:02:44.065Z,11.06
2023-05-14T05:03:44.302Z,11.13
2023-05-14T05:04:44.446Z,11.13
2023-05-14T05:05:44.583Z,11.06
2023-05-14T05:06:44.721Z,11.11
2023-05-14T05:07:44.864Z,11.19
2023-05-14T05:08:45.537Z,11.19
2023-05-14T05:09:45.170Z,11.25
2023-05-14T05:10:45.299Z,11.13
2023-05-14T05:11:46.518Z,11.20
2023-05-14T05:12:46.994Z,11.17
2023-05-14T05:13:45.874Z,11.17
2023-05-14T05:14:46.056Z,11.06
2023-05-14T05:15:48.003Z,11.16
2023-05-14T05:16:46.408Z,11.21
2023-05-14T05:17:47.601Z,11.50
2023-05-14T05:18:47.541Z,11.61
2023-05-14T05:19:47.035Z,11.99
2023-05-14T05:20:47.085Z,12.01
2023-05-14T05:21:48.492Z,11.78
2023-05-14T05:22:48.034Z,11.70
2023-05-14T05:23:47.655Z,11.50
2023-05-14T05:24:49.824Z,11.65
2023-05-14T05:25:47.991Z,11.49
2023-05-14T05:26:49.038Z,11.59
2023-05-14T05:27:49.036Z,11.68
2023-05-14T05:28:48.461Z,11.83
2023-05-14T05:29:49.503Z,11.96
2023-05-14T05:30:48.773Z,12.09
2023-05-14T05:31:49.113Z,12.11
2023-05-14T05:32:49.138Z,12.12
2023-05-14T05:33:49.367Z,12.16
2023-05-14T05:34:49.548Z,12.38
2023-05-14T05:35:51.361Z,12.42
2023-05-14T05:36:50.060Z,12.59
2023-05-14T05:37:51.009Z,12.69
2023-05-14T05:38:50.998Z,12.75
2023-05-14T05:39:51.999Z,12.71
2023-05-14T05:40:51.526Z,12.70
2023-05-14T05:41:50.932Z,12.67
2023-05-14T05:42:51.523Z,12.77
2023-05-14T05:43:52.038Z,12.82
2023-05-14T05:44:51.309Z,12.81
2023-05-14T05:45:51.530Z,12.81
2023-05-14T05:46:52.571Z,12.87
2023-05-14T05:47:52.051Z,12.89
2023-05-14T05:48:52.489Z,13.03
2023-05-14T05:49:52.128Z,13.12
2023-05-14T05:50:52.999Z,13.25
2023-05-14T05:51:52.535Z,13.25
2023-05-14T05:52:53.533Z,13.41
2023-05-14T05:53:53.863Z,13.44
2023-05-14T05:54:53.165Z,13.58
2023-05-14T05:55:53.349Z,13.79
2023-05-14T05:56:54.044Z,13.87
2023-05-14T05:57:53.749Z,13.98
2023-05-14T05:58:54.464Z,14.01
2023-05-14T05:59:55.419Z,14.09
2023-05-14T06:00:55.010Z,13.99
2023-05-14T06:01:55.534Z,14.09
2023-05-14T06:02:55.565Z,14.07
2023-05-14T06:03:54.899Z,14.13
2023-05-14T06:04:55.593Z,14.25
2023-05-14T06:05:55.866Z,14.21
2023-05-14T06:06:55.540Z,14.17
2023-05-14T06:07:55.747Z,14.34
2023-05-14T06:08:55.943Z,14.19
2023-05-14T06:09:56.175Z,14.13
2023-05-14T06:10:56.390Z,13.98
2023-05-14T06:11:57.508Z,13.84
2023-05-14T06:12:56.683Z,13.83
2023-05-14T06:13:56.858Z,13.69
2023-05-14T06:14:58.529Z,13.63
2023-05-14T06:15:57.557Z,13.49
2023-05-14T06:16:57.462Z,13.33
2023-05-14T06:17:57.524Z,13.29
2023-05-14T06:18:57.755Z,13.30
2023-05-14T06:19:57.910Z,13.43
2023-05-14T06:20:58.057Z,13.46
2023-05-14T06:21:59.006Z,13.37
2023-05-14T06:22:59.511Z,13.43
2023-05-14T06:23:58.532Z,13.32
2023-05-14T06:24:58.667Z,13.47
2023-05-14T06:25:59.527Z,13.52
2023-05-14T06:26:59.559Z,13.46
2023-05-14T06:27:59.179Z,13.52
2023-05-14T06:29:00.505Z,13.71
2023-05-14T06:29:59.503Z,13.79
2023-05-14T06:31:01.002Z,13.70
2023-05-14T06:31:59.934Z,13.67
2023-05-14T06:33:01.059Z,13.81
2023-05-14T06:34:00.348Z,13.84
2023-05-14T06:35:02.018Z,13.70
2023-05-14T06:36:00.668Z,13.74
2023-05-14T06:37:01.508Z,13.89
2023-05-14T06:38:02.011Z,13.74
2023-05-14T06:39:01.414Z,13.88
2023-05-14T06:40:01.474Z,14.02
2023-05-14T06:41:01.691Z,14.17
2023-05-14T06:42:02.506Z,14.19
2023-05-14T06:43:02.060Z,14.27
2023-05-14T06:44:02.211Z,14.21
2023-05-14T06:45:03.005Z,14.28
2023-05-14T06:46:02.506Z,14.10
2023-05-14T06:47:02.643Z,14.14
2023-05-14T06:48:02.940Z,14.25
2023-05-14T06:49:02.925Z,14.25
2023-05-14T06:50:04.061Z,14.39
2023-05-14T06:51:04.013Z,14.68
2023-05-14T06:52:03.526Z,14.64
2023-05-14T06:53:03.689Z,14.69
2023-05-14T06:54:03.817Z,14.80
2023-05-14T06:55:03.940Z,14.81
2023-05-14T06:56:04.085Z,14.69
2023-05-14T06:57:04.240Z,14.69
2023-05-14T06:58:04.496Z,14.74
2023-05-14T06:59:07.942Z,14.80
2023-05-14T07:00:04.748Z,14.93
2023-05-14T07:01:05.526Z,15.11
2023-05-14T07:02:05.064Z,15.39
2023-05-14T07:03:05.292Z,15.68
2023-05-14T07:04:05.390Z,15.74
2023-05-14T07:05:05.609Z,15.74
2023-05-14T07:06:06.595Z,15.76
2023-05-14T07:07:05.968Z,15.86
2023-05-14T07:08:06.115Z,16.07
2023-05-14T07:09:06.268Z,16.31
2023-05-14T07:10:06.460Z,16.38
2023-05-14T07:11:06.640Z,16.23
2023-05-14T07:12:06.783Z,16.35
2023-05-14T07:13:06.937Z,16.20
2023-05-14T07:14:07.067Z,16.33
2023-05-14T07:15:07.227Z,16.41
2023-05-14T07:16:08.018Z,16.67
2023-05-14T07:17:07.587Z,16.80
2023-05-14T07:18:08.098Z,16.83
2023-05-14T07:19:07.931Z,16.70
2023-05-14T07:20:08.089Z,16.45
2023-05-14T07:21:08.249Z,16.38
2023-05-14T07:22:09.066Z,16.07
2023-05-14T07:23:08.606Z,15.96
2023-05-14T07:24:08.764Z,16.06
2023-05-14T07:25:08.945Z,15.99
2023-05-14T07:26:09.131Z,15.92
2023-05-14T07:27:09.274Z,16.00
2023-05-14T07:28:09.430Z,16.20
2023-05-14T07:29:09.576Z,17.04
2023-05-14T07:30:10.519Z,17.44
2023-05-14T07:31:10.561Z,17.70
2023-05-14T07:32:10.127Z,17.57
2023-05-14T07:33:10.292Z,17.64
2023-05-14T07:34:11.011Z,17.76
2023-05-14T07:35:11.670Z,17.59
2023-05-14T07:36:10.798Z,17.35
2023-05-14T07:37:11.482Z,17.17
2023-05-14T07:38:12.068Z,17.07
2023-05-14T07:39:11.351Z,17.08
2023-05-14T07:40:11.535Z,17.14
2023-05-14T07:41:11.720Z,17.18
2023-05-14T07:42:17.012Z,17.13
2023-05-14T07:43:14.083Z,17.04
2023-05-14T07:44:12.334Z,17.25
2023-05-14T07:45:12.467Z,17.64
2023-05-14T07:46:12.574Z,17.84
2023-05-14T07:47:13.901Z,18.02
2023-05-14T07:48:13.615Z,17.99
2023-05-14T07:49:13.179Z,18.09
2023-05-14T07:50:13.304Z,18.42
2023-05-14T07:51:14.532Z,18.68
2023-05-14T07:52:13.780Z,18.86
2023-05-14T07:53:14.575Z,18.57
2023-05-14T07:54:14.203Z,18.09
2023-05-14T07:55:14.348Z,17.92
2023-05-14T07:56:14.516Z,17.94
2023-05-14T07:57:14.672Z,17.57
2023-05-14T07:58:15.525Z,17.44
2023-05-14T07:59:16.030Z,17.40
2023-05-14T08:00:15.145Z,17.30
2023-05-14T08:01:15.380Z,17.22
2023-05-14T08:02:15.612Z,17.18
2023-05-14T08:03:15.806Z,17.22
2023-05-14T08:04:16.613Z,17.23
2023-05-14T08:05:16.027Z,17.26
2023-05-14T08:06:17.061Z,17.53
2023-05-14T08:07:16.335Z,17.69
2023-05-14T08:08:16.502Z,17.74
2023-05-14T08:09:18.559Z,17.88
2023-05-14T08:10:16.831Z,17.84
2023-05-14T08:11:17.600Z,17.92
2023-05-14T08:12:18.045Z,18.03
2023-05-14T08:13:17.918Z,18.07
2023-05-14T08:14:17.554Z,18.19
2023-05-14T08:15:17.723Z,18.18
2023-05-14T08:16:17.943Z,18.06
2023-05-14T08:17:19.126Z,17.84
2023-05-14T08:18:19.049Z,17.88
2023-05-14T08:19:18.602Z,17.76
2023-05-14T08:20:18.673Z,17.57
2023-05-14T08:21:18.885Z,17.70
2023-05-14T08:22:20.051Z,17.78
2023-05-14T08:23:20.549Z,17.70
2023-05-14T08:24:20.546Z,17.79
2023-05-14T08:25:19.677Z,17.91
2023-05-14T08:26:19.861Z,18.00
2023-05-14T08:27:20.611Z,17.94
2023-05-14T08:28:21.557Z,17.99
2023-05-14T08:29:21.112Z,17.91
2023-05-14T08:30:20.512Z,17.88
2023-05-14T08:31:22.683Z,17.97
2023-05-14T08:32:23.905Z,17.87
2023-05-14T08:33:22.091Z,17.63
2023-05-14T08:34:22.087Z,17.57
2023-05-14T08:35:22.103Z,17.57
2023-05-14T08:36:23.056Z,17.54
2023-05-14T08:37:22.600Z,17.48
2023-05-14T08:38:21.869Z,17.66
2023-05-14T08:39:22.071Z,17.54
2023-05-14T08:40:22.455Z,17.55
2023-05-14T08:41:23.116Z,17.43
2023-05-14T08:42:22.637Z,17.41
2023-05-14T08:43:22.851Z,17.38
2023-05-14T08:44:23.031Z,17.40
2023-05-14T08:45:24.133Z,17.35
2023-05-14T08:46:23.377Z,17.43
2023-05-14T08:47:23.752Z,17.46
2023-05-14T08:48:23.764Z,17.70
2023-05-14T08:49:23.842Z,17.95
2023-05-14T08:50:24.049Z,17.87
2023-05-14T08:51:24.288Z,17.78
2023-05-14T08:52:25.052Z,17.70
2023-05-14T08:53:24.704Z,17.78
2023-05-14T08:54:24.909Z,17.73
2023-05-14T08:55:25.088Z,17.87
2023-05-14T08:56:26.613Z,17.88
2023-05-14T08:57:26.108Z,17.82
2023-05-14T08:58:25.524Z,17.69
2023-05-14T08:59:26.609Z,17.73
2023-05-14T09:00:26.905Z,17.59
2023-05-14T09:01:26.626Z,17.51
2023-05-14T09:02:27.092Z,17.57
2023-05-14T09:03:27.106Z,17.67
2023-05-14T09:04:26.482Z,17.74
2023-05-14T09:05:26.638Z,17.84
2023-05-14T09:06:26.807Z,18.10
2023-05-14T09:07:27.120Z,18.19
2023-05-14T09:08:27.113Z,18.21
2023-05-14T09:09:27.258Z,18.17
2023-05-14T09:10:28.141Z,18.18
2023-05-14T09:11:29.102Z,18.09
2023-05-14T09:12:28.568Z,18.12
2023-05-14T09:13:28.463Z,17.99
2023-05-14T09:14:29.086Z,18.02
2023-05-14T09:15:28.343Z,18.03
2023-05-14T09:16:28.608Z,18.12
2023-05-14T09:17:28.712Z,18.04
2023-05-14T09:18:28.925Z,17.89
2023-05-14T09:19:29.033Z,17.88
2023-05-14T09:20:30.064Z,17.97
2023-05-14T09:21:30.552Z,17.88
2023-05-14T09:22:30.124Z,17.82
2023-05-14T09:23:30.566Z,17.91
2023-05-14T09:24:29.996Z,17.99
2023-05-14T09:25:30.159Z,17.97
2023-05-14T09:26:31.064Z,17.92
2023-05-14T09:27:30.587Z,17.91
2023-05-14T09:28:30.771Z,18.04
2023-05-14T09:29:30.952Z,18.17
2023-05-14T09:30:31.625Z,18.03
2023-05-14T09:31:32.116Z,17.99
2023-05-14T09:32:31.429Z,18.04
2023-05-14T09:33:31.685Z,18.06
2023-05-14T09:34:32.568Z,18.21
2023-05-14T09:35:32.686Z,18.02
2023-05-14T09:36:32.204Z,18.09
2023-05-14T09:37:32.391Z,18.09
2023-05-14T09:38:32.538Z,18.19
2023-05-14T09:39:32.702Z,18.24
2023-05-14T09:40:33.575Z,18.34
2023-05-14T09:41:33.084Z,18.47
2023-05-14T09:42:33.328Z,18.59
2023-05-14T09:43:33.495Z,18.73
2023-05-14T09:44:33.693Z,18.84
2023-05-14T09:45:34.677Z,18.79
2023-05-14T09:46:34.049Z,18.55
2023-05-14T09:47:35.172Z,18.47
2023-05-14T09:48:35.118Z,18.68
2023-05-14T09:49:34.513Z,18.67
2023-05-14T09:50:34.688Z,18.64
2023-05-14T09:51:34.835Z,18.68
2023-05-14T09:52:35.570Z,18.54
2023-05-14T09:53:36.618Z,18.80
2023-05-14T09:54:35.356Z,18.87
2023-05-14T09:55:36.081Z,18.95
2023-05-14T09:56:37.578Z,18.90
2023-05-14T09:57:37.096Z,19.11
2023-05-14T09:58:37.080Z,19.31
2023-05-14T09:59:36.198Z,19.24
2023-05-14T10:00:36.394Z,19.21
2023-05-14T10:01:37.197Z,19.32
2023-05-14T10:02:38.953Z,19.29
2023-05-14T10:03:37.946Z,19.38
2023-05-14T10:04:37.280Z,19.40
2023-05-14T10:05:37.487Z,19.54
2023-05-14T10:06:38.138Z,19.50
2023-05-14T10:07:38.580Z,19.69
2023-05-14T10:08:37.993Z,19.84
2023-05-14T10:09:38.177Z,19.95
2023-05-14T10:10:38.373Z,19.94
2023-05-14T10:11:38.644Z,19.94
2023-05-14T10:12:39.622Z,19.88
2023-05-14T10:13:39.597Z,19.79
2023-05-14T10:14:39.021Z,19.93
2023-05-14T10:15:39.192Z,20.24
2023-05-14T10:16:40.643Z,20.39
2023-05-14T10:17:39.572Z,20.50
2023-05-14T10:18:39.877Z,20.62
2023-05-14T10:19:41.592Z,20.71
2023-05-14T10:20:40.212Z,20.79
2023-05-14T10:21:40.376Z,20.83
2023-05-14T10:22:41.083Z,20.58
2023-05-14T10:23:40.779Z,20.49
2023-05-14T10:24:41.634Z,20.49
2023-05-14T10:25:41.203Z,20.59
2023-05-14T10:26:41.405Z,20.49
2023-05-14T10:27:41.646Z,20.28
2023-05-14T10:28:41.815Z,19.98
2023-05-14T10:29:41.985Z,19.90
2023-05-14T10:30:42.183Z,19.84
2023-05-14T10:31:42.371Z,19.38
2023-05-14T10:32:42.519Z,19.20
2023-05-14T10:33:42.732Z,19.20
2023-05-14T10:34:44.553Z,19.15
2023-05-14T10:35:43.064Z,19.13
2023-05-14T10:36:44.138Z,19.15
2023-05-14T10:37:43.432Z,18.86
2023-05-14T10:38:44.601Z,18.84
2023-05-14T10:39:45.628Z,18.64
2023-05-14T10:40:43.903Z,18.62
2023-05-14T10:41:44.123Z,18.55
2023-05-14T10:42:45.098Z,18.49
2023-05-14T10:43:44.652Z,18.46
2023-05-14T10:44:45.733Z,18.33
2023-05-14T10:45:46.101Z,18.25
2023-05-14T10:46:45.145Z,18.28
2023-05-14T10:47:46.321Z,18.37
2023-05-14T10:48:47.134Z,18.50
2023-05-14T10:49:46.135Z,18.47
2023-05-14T10:50:47.146Z,18.61
2023-05-14T10:51:45.966Z,18.44
2023-05-14T10:52:46.183Z,18.40
2023-05-14T10:53:46.395Z,18.42
2023-05-14T10:54:47.962Z,18.43
2023-05-14T10:55:47.602Z,18.40
2023-05-14T10:56:46.876Z,18.37
2023-05-14T10:57:47.070Z,18.39
2023-05-14T10:58:47.233Z,18.31
2023-05-14T10:59:47.397Z,18.36
2023-05-14T11:00:47.605Z,18.22
2023-05-14T11:01:48.614Z,18.15
2023-05-14T11:02:48.697Z,18.17
2023-05-14T11:03:48.166Z,18.12
2023-05-14T11:04:48.339Z,18.12
2023-05-14T11:05:48.535Z,18.10
2023-05-14T11:06:49.506Z,18.07
2023-05-14T11:07:49.607Z,18.13
2023-05-14T11:08:50.109Z,18.18
2023-05-14T11:09:50.107Z,18.12
2023-05-14T11:10:49.410Z,18.22
2023-05-14T11:11:50.145Z,18.28
2023-05-14T11:12:49.796Z,18.21
2023-05-14T11:13:49.983Z,18.33
2023-05-14T11:14:51.110Z,18.29
2023-05-14T11:15:50.394Z,18.25
2023-05-14T11:16:50.604Z,18.42
2023-05-14T11:17:50.952Z,18.43
2023-05-14T11:18:52.086Z,18.61
2023-05-14T11:19:51.372Z,18.76
2023-05-14T11:20:52.658Z,19.01
2023-05-14T11:21:51.563Z,19.20
2023-05-14T11:22:51.908Z,19.29
2023-05-14T11:23:52.681Z,19.35
2023-05-14T11:24:52.639Z,19.58
2023-05-14T11:25:52.983Z,19.76
2023-05-14T11:26:52.398Z,19.86
2023-05-14T11:27:53.112Z,19.93
2023-05-14T11:28:53.615Z,20.16
2023-05-14T11:29:53.653Z,20.08
2023-05-14T11:30:53.187Z,19.91
2023-05-14T11:31:53.453Z,19.79
2023-05-14T11:32:54.220Z,19.78
2023-05-14T11:33:55.117Z,19.73
2023-05-14T11:34:54.479Z,19.88
2023-05-14T11:35:53.990Z,19.95
2023-05-14T11:36:55.136Z,19.93
2023-05-14T11:37:54.306Z,20.00
2023-05-14T11:38:54.500Z,20.00
2023-05-14T11:39:54.669Z,19.90
2023-05-14T11:40:54.837Z,19.93
2023-05-14T11:41:55.038Z,19.86
2023-05-14T11:42:55.985Z,19.80
2023-05-14T11:43:55.384Z,19.80
2023-05-14T11:44:56.128Z,19.79
2023-05-14T11:45:55.895Z,19.55
2023-05-14T11:46:57.632Z,19.48
2023-05-14T11:47:56.184Z,19.39
2023-05-14T11:48:56.666Z,19.08
2023-05-14T11:49:56.447Z,18.98
2023-05-14T11:50:57.128Z,18.91
2023-05-14T11:51:57.636Z,18.83
2023-05-14T11:52:56.924Z,18.65
2023-05-14T11:53:57.128Z,18.77
2023-05-14T11:54:58.319Z,18.74
2023-05-14T11:55:57.446Z,18.76
2023-05-14T11:56:57.619Z,18.62
2023-05-14T11:57:57.782Z,18.50
2023-05-14T11:58:57.965Z,18.44
2023-05-14T11:59:58.128Z,18.54
2023-05-14T12:00:59.134Z,18.40
2023-05-14T12:01:59.527Z,18.29
2023-05-14T12:02:59.216Z,18.34
2023-05-14T12:03:59.687Z,18.44
2023-05-14T12:04:59.010Z,18.55
2023-05-14T12:06:00.200Z,18.49
2023-05-14T12:07:00.174Z,18.46
2023-05-14T12:07:59.582Z,18.46
2023-05-14T12:08:59.788Z,18.33
2023-05-14T12:09:59.961Z,18.34
2023-05-14T12:11:01.128Z,18.28
2023-05-14T12:12:01.131Z,18.22
2023-05-14T12:13:01.165Z,18.39
2023-05-14T12:14:00.622Z,18.50
2023-05-14T12:15:02.651Z,18.64
2023-05-14T12:16:00.940Z,18.68
2023-05-14T12:17:00.956Z,18.90
2023-05-14T12:18:02.927Z,19.24
2023-05-14T12:19:04.050Z,19.20
2023-05-14T12:20:02.183Z,19.11
2023-05-14T12:21:01.780Z,18.87
2023-05-14T12:22:02.691Z,18.86
2023-05-14T12:23:02.157Z,18.80
2023-05-14T12:24:02.697Z,18.92
2023-05-14T12:25:03.171Z,18.83
2023-05-14T12:26:02.768Z,18.76
2023-05-14T12:27:02.946Z,18.82
2023-05-14T12:28:03.131Z,18.74
2023-05-14T12:29:03.366Z,18.87
2023-05-14T12:30:19.762Z,18.97
2023-05-14T12:31:06.710Z,19.11
2023-05-14T12:32:04.641Z,19.40
2023-05-14T12:33:04.099Z,19.57
2023-05-14T12:34:04.197Z,19.70
2023-05-14T12:35:04.303Z,19.80
2023-05-14T12:36:20.633Z,19.98
2023-05-14T12:37:07.177Z,19.98
2023-05-14T12:38:04.861Z,19.84
2023-05-14T12:39:05.686Z,19.75
2023-05-14T12:40:05.632Z,19.57
2023-05-14T12:41:05.726Z,19.61
2023-05-14T12:42:05.528Z,19.43
2023-05-14T12:43:06.678Z,19.32
2023-05-14T12:44:06.695Z,19.23
2023-05-14T12:45:05.990Z,19.02
2023-05-14T12:46:07.180Z,18.97
2023-05-14T12:47:08.241Z,18.95
2023-05-14T12:48:07.208Z,18.95
2023-05-14T12:49:08.638Z,18.92
2023-05-14T12:50:07.019Z,18.86
2023-05-14T12:51:07.211Z,18.82
2023-05-14T12:52:22.760Z,18.80
2023-05-14T12:53:09.540Z,18.77
2023-05-14T12:54:08.643Z,18.82
2023-05-14T12:55:09.370Z,18.82
2023-05-14T12:56:07.944Z,18.91
2023-05-14T12:57:08.684Z,18.99
2023-05-14T12:58:09.008Z,19.05
2023-05-14T12:59:08.560Z,19.32
2023-05-14T13:00:08.920Z,19.51
2023-05-14T13:01:09.035Z,19.73
2023-05-14T13:02:09.117Z,19.86
2023-05-14T13:03:10.057Z,19.94
2023-05-14T13:04:10.184Z,20.30